Time;durP1;ratioP1;P1;durP2;ratioP2;P2;SDS_P1;SDS_P2;PMS_P1;PMS_P2;Temp;Humidity;BMP_temperature;BMP_pressure;BME280_temperature;BME280_humidity;BME280_pressure;Samples;Min_cycle;Max_cycle;Signal;HPM_P1;HPM_P2
2023/05/15 00:01:20;;;;;;;2.75;1.60;;;23.50;51.10;;;;;;5038539;28;20040;-65
2023/05/15 00:03:46;;;;;;;3.10;1.70;;;23.50;51.10;;;;;;5037837;28;20037;-66
2023/05/15 00:06:12;;;;;;;2.90;1.63;;;23.40;51.00;;;;;;5039408;28;20136;-66
2023/05/15 00:08:37;;;;;;;3.22;1.77;;;23.40;51.00;;;;;;5036823;28;20146;-67
2023/05/15 00:11:03;;;;;;;2.50;1.50;;;23.40;51.10;;;;;;5038783;28;20041;-66
2023/05/15 00:13:29;;;;;;;3.15;1.60;;;23.40;51.10;;;;;;5039042;28;20564;-67
2023/05/15 00:15:55;;;;;;;3.10;1.73;;;23.40;51.10;;;;;;5040345;28;20108;-66
2023/05/15 00:18:20;;;;;;;2.60;1.70;;;23.40;51.10;;;;;;5036374;28;20025;-67
2023/05/15 00:20:46;;;;;;;3.17;1.70;;;23.40;51.10;;;;;;5035501;28;20812;-67
2023/05/15 00:23:11;;;;;;;2.72;1.52;;;23.40;51.10;;;;;;5035960;28;20120;-66
2023/05/15 00:25:37;;;;;;;2.78;1.48;;;23.40;51.20;;;;;;5034967;28;20520;-67
2023/05/15 00:28:03;;;;;;;2.28;1.42;;;23.40;51.10;;;;;;5039116;28;20048;-67
2023/05/15 00:30:28;;;;;;;3.40;1.63;;;23.30;51.10;;;;;;5038531;28;20041;-66
2023/05/15 00:32:54;;;;;;;2.65;1.70;;;23.30;51.20;;;;;;5035108;28;20048;-66
2023/05/15 00:35:19;;;;;;;2.95;1.75;;;23.30;51.20;;;;;;5035400;28;20025;-66
2023/05/15 00:37:45;;;;;;;2.75;1.60;;;23.30;51.20;;;;;;5038629;28;20101;-67
2023/05/15 00:40:17;;;;;;;3.22;1.75;;;23.30;51.20;;;;;;5037489;28;20029;-66
2023/05/15 00:42:43;;;;;;;3.00;1.85;;;23.30;51.20;;;;;;5038516;28;20464;-67
2023/05/15 00:45:10;;;;;;;2.80;1.60;;;23.30;51.20;;;;;;5036142;28;20030;-66
2023/05/15 00:47:37;;;;;;;2.72;1.48;;;23.20;51.20;;;;;;5035878;28;20481;-66
2023/05/15 00:50:03;;;;;;;3.25;1.65;;;23.30;51.20;;;;;;5035562;28;20074;-66
2023/05/15 00:52:29;;;;;;;2.33;1.55;;;23.20;51.20;;;;;;5039396;28;20436;-66
2023/05/15 00:54:55;;;;;;;2.65;1.52;;;23.20;51.20;;;;;;5038290;28;20026;-66
2023/05/15 00:57:22;;;;;;;2.20;1.45;;;23.20;51.80;;;;;;5038742;28;20033;-66
2023/05/15 00:59:50;;;;;;;2.50;1.60;;;23.20;51.30;;;;;;5035444;28;20463;-67
2023/05/15 01:02:20;;;;;;;2.50;1.50;;;23.20;51.30;;;;;;5034936;28;20041;-65
2023/05/15 01:04:45;;;;;;;3.88;1.83;;;23.20;51.30;;;;;;5037041;28;20033;-66
2023/05/15 01:07:12;;;;;;;2.80;1.60;;;23.20;51.30;;;;;;5037800;28;20032;-66
2023/05/15 01:09:39;;;;;;;2.50;1.60;;;23.10;51.80;;;;;;5039033;28;20021;-66
2023/05/15 01:12:06;;;;;;;2.78;1.75;;;23.10;51.30;;;;;;5038414;28;20453;-67
2023/05/15 01:14:32;;;;;;;2.85;1.65;;;23.10;51.30;;;;;;5037058;28;20112;-66
2023/05/15 01:16:57;;;;;;;2.80;1.48;;;23.10;51.30;;;;;;5037120;28;20156;-66
2023/05/15 01:19:23;;;;;;;2.33;1.50;;;23.10;51.40;;;;;;5037924;28;20482;-67
2023/05/15 01:21:54;;;;;;;2.55;1.40;;;23.10;51.90;;;;;;5038476;28;20461;-66
2023/05/15 01:24:40;;;;;;;2.70;1.50;;;23.10;51.40;;;;;;5038178;28;20381;-67
2023/05/15 01:27:19;;;;;;;2.83;1.50;;;23.10;51.40;;;;;;5041623;28;20029;-66
2023/05/15 01:29:56;;;;;;;2.30;1.40;;;23.00;51.70;;;;;;5043936;28;20043;-67
2023/05/15 01:32:46;;;;;;;2.53;1.60;;;23.00;51.40;;;;;;5040890;28;20519;-65
2023/05/15 01:35:59;;;;;;;1.95;1.35;;;23.00;51.40;;;;;;5038243;28;20437;-66
2023/05/15 01:38:43;;;;;;;2.67;1.52;;;23.00;51.40;;;;;;5038994;28;20030;-66
2023/05/15 01:41:12;;;;;;;3.15;1.50;;;23.00;51.40;;;;;;5038804;28;20516;-67
2023/05/15 01:43:41;;;;;;;2.20;1.40;;;23.00;51.40;;;;;;5041790;28;20031;-66
2023/05/15 01:46:08;;;;;;;2.83;1.48;;;23.00;51.50;;;;;;5039280;28;20277;-67
2023/05/15 01:48:35;;;;;;;2.22;1.40;;;23.00;51.50;;;;;;5040633;28;20037;-67
2023/05/15 01:51:03;;;;;;;2.47;1.50;;;23.00;51.50;;;;;;5038843;28;20037;-67
2023/05/15 01:53:33;;;;;;;2.97;1.60;;;22.90;51.40;;;;;;5040189;28;20143;-67
2023/05/15 01:56:00;;;;;;;2.70;1.60;;;22.90;51.40;;;;;;5038379;28;20029;-66
2023/05/15 01:58:26;;;;;;;2.75;1.83;;;22.90;51.50;;;;;;5039150;28;20033;-67
2023/05/15 02:00:52;;;;;;;2.63;1.60;;;22.90;51.50;;;;;;5040027;28;20033;-65
2023/05/15 02:03:19;;;;;;;3.35;1.58;;;22.90;51.50;;;;;;5038301;28;20048;-66
2023/05/15 02:05:46;;;;;;;2.63;1.67;;;22.90;51.50;;;;;;5039024;28;20484;-66
2023/05/15 02:08:12;;;;;;;2.28;1.40;;;22.90;51.50;;;;;;5042121;28;20029;-67
2023/05/15 02:10:38;;;;;;;2.30;1.48;;;22.90;51.50;;;;;;5039050;28;20071;-66
2023/05/15 02:13:07;;;;;;;2.58;1.48;;;22.90;51.50;;;;;;5039684;28;20041;-67
2023/05/15 02:15:34;;;;;;;2.72;1.30;;;22.90;51.50;;;;;;5040112;28;20056;-66
2023/05/15 02:18:00;;;;;;;4.03;1.60;;;22.90;51.60;;;;;;5041862;28;20025;-66
2023/05/15 02:20:26;;;;;;;2.10;1.50;;;22.80;51.50;;;;;;5039629;28;20100;-66
2023/05/15 02:22:51;;;;;;;2.35;1.50;;;22.80;51.50;;;;;;5041672;28;20620;-66
2023/05/15 02:25:18;;;;;;;1.90;1.30;;;22.80;51.50;;;;;;5041653;28;20256;-66
2023/05/15 02:28:00;;;;;;;2.28;1.40;;;22.80;51.50;;;;;;5040524;28;20506;-66
2023/05/15 02:30:48;;;;;;;2.03;1.30;;;22.80;51.50;;;;;;5041166;28;20034;-67
2023/05/15 02:33:22;;;;;;;2.30;1.50;;;22.80;51.50;;;;;;5037506;28;20056;-66
2023/05/15 02:35:55;;;;;;;2.65;1.45;;;22.80;51.50;;;;;;5040888;28;20029;-66
2023/05/15 02:38:31;;;;;;;2.17;1.40;;;22.80;51.50;;;;;;5037889;28;20033;-66
2023/05/15 02:40:59;;;;;;;2.85;1.60;;;22.80;51.60;;;;;;5038883;28;20074;-66
2023/05/15 02:43:25;;;;;;;2.42;1.60;;;22.80;51.60;;;;;;5040284;28;20022;-66
2023/05/15 02:45:52;;;;;;;2.50;1.30;;;22.70;51.50;;;;;;5038927;28;20504;-66
2023/05/15 02:48:18;;;;;;;2.53;1.40;;;22.80;51.60;;;;;;5039374;28;20021;-64
2023/05/15 02:50:44;;;;;;;2.38;1.60;;;22.70;51.50;;;;;;5038219;28;20044;-66
2023/05/15 02:53:09;;;;;;;2.38;1.40;;;22.70;51.60;;;;;;5040019;28;20021;-66
2023/05/15 02:55:36;;;;;;;2.08;1.45;;;22.70;51.60;;;;;;5042062;28;20024;-67
2023/05/15 02:58:03;;;;;;;2.25;1.30;;;22.70;51.60;;;;;;5037196;28;20098;-66
2023/05/15 03:00:29;;;;;;;1.92;1.25;;;22.70;51.60;;;;;;5038101;28;20092;-66
2023/05/15 03:02:54;;;;;;;2.50;1.50;;;22.70;51.70;;;;;;5036789;28;20029;-65
2023/05/15 03:05:20;;;;;;;3.83;1.40;;;22.70;51.60;;;;;;5039508;28;20033;-67
2023/05/15 03:07:46;;;;;;;2.00;1.30;;;22.70;51.60;;;;;;5039125;28;20107;-66
2023/05/15 03:10:11;;;;;;;2.75;1.67;;;22.70;51.60;;;;;;5038506;28;20052;-66
2023/05/15 03:12:38;;;;;;;2.08;1.30;;;22.70;51.60;;;;;;5039241;28;20049;-66
2023/05/15 03:15:06;;;;;;;1.77;1.23;;;22.70;51.60;;;;;;5037954;28;20476;-66
2023/05/15 03:17:32;;;;;;;2.22;1.40;;;22.70;51.60;;;;;;5036447;28;20431;-66
2023/05/15 03:19:57;;;;;;;1.80;1.30;;;22.70;51.70;;;;;;5034404;28;20037;-66
2023/05/15 03:22:23;;;;;;;1.92;1.38;;;22.60;51.60;;;;;;5037196;28;20044;-66
2023/05/15 03:24:49;;;;;;;1.98;1.40;;;22.60;51.60;;;;;;5038133;28;20052;-66
2023/05/15 03:27:15;;;;;;;1.92;1.30;;;22.60;51.60;;;;;;5039203;28;20129;-66
2023/05/15 03:29:41;;;;;;;2.25;1.27;;;22.60;51.60;;;;;;5038146;28;22456;-67
2023/05/15 03:32:07;;;;;;;2.40;1.45;;;22.60;51.60;;;;;;5035596;28;20491;-66
2023/05/15 03:34:32;;;;;;;1.83;1.45;;;22.60;51.60;;;;;;5036256;28;20026;-67
2023/05/15 03:36:58;;;;;;;2.30;1.40;;;22.60;51.60;;;;;;5038341;28;20037;-66
2023/05/15 03:39:24;;;;;;;1.73;1.20;;;22.60;51.70;;;;;;5038211;28;20013;-66
2023/05/15 03:41:49;;;;;;;2.00;1.20;;;22.60;51.70;;;;;;5039148;28;20535;-66
2023/05/15 03:44:15;;;;;;;1.95;1.30;;;22.60;51.70;;;;;;5039784;28;20096;-67
2023/05/15 03:46:40;;;;;;;1.67;1.27;;;22.60;51.70;;;;;;5037479;28;20134;-66
2023/05/15 03:49:06;;;;;;;2.42;1.40;;;22.50;51.60;;;;;;5036060;28;20048;-66
2023/05/15 03:51:32;;;;;;;2.22;1.50;;;22.60;51.70;;;;;;5037265;28;20033;-65
2023/05/15 03:53:57;;;;;;;2.05;1.30;;;22.50;51.70;;;;;;5037604;28;20524;-66
2023/05/15 03:56:23;;;;;;;2.10;1.30;;;22.50;51.70;;;;;;5037642;28;20022;-66
2023/05/15 03:58:48;;;;;;;1.70;1.10;;;22.60;51.70;;;;;;5034448;28;20024;-66
2023/05/15 04:01:14;;;;;;;1.92;1.30;;;22.50;51.70;;;;;;5039905;28;20098;-66
2023/05/15 04:03:40;;;;;;;2.20;1.15;;;22.50;51.70;;;;;;5036979;28;20057;-66
2023/05/15 04:06:05;;;;;;;1.88;1.20;;;22.50;51.70;;;;;;5038569;28;20132;-66
2023/05/15 04:08:31;;;;;;;2.15;1.23;;;22.50;51.70;;;;;;5036547;28;20029;-66
2023/05/15 04:10:56;;;;;;;2.65;1.50;;;22.50;51.70;;;;;;5039032;28;20108;-66
2023/05/15 04:13:22;;;;;;;2.15;1.20;;;22.50;51.70;;;;;;5035056;28;20342;-66
2023/05/15 04:15:48;;;;;;;1.88;1.20;;;22.50;51.70;;;;;;5039449;28;20039;-66
2023/05/15 04:18:13;;;;;;;2.08;1.30;;;22.50;51.70;;;;;;5038210;28;20535;-67
2023/05/15 04:20:39;;;;;;;2.40;1.30;;;22.50;51.80;;;;;;5036035;28;20373;-67
2023/05/15 04:23:05;;;;;;;2.30;1.40;;;22.50;51.70;;;;;;5037524;28;20127;-67
2023/05/15 04:25:31;;;;;;;2.13;1.42;;;22.50;51.80;;;;;;5037994;28;20041;-66
2023/05/15 04:27:57;;;;;;;2.45;1.40;;;22.40;51.70;;;;;;5039230;28;20534;-64
2023/05/15 04:30:22;;;;;;;2.15;1.10;;;22.50;51.80;;;;;;5036464;28;20033;-64
2023/05/15 04:32:48;;;;;;;1.92;1.38;;;22.40;51.80;;;;;;5039795;28;20048;-64
2023/05/15 04:35:14;;;;;;;2.38;1.40;;;22.50;51.90;;;;;;5035509;28;20026;-65
2023/05/15 04:37:41;;;;;;;2.03;1.17;;;22.40;51.90;;;;;;5038800;28;20117;-64
2023/05/15 04:40:08;;;;;;;2.05;1.30;;;22.40;51.90;;;;;;5034130;28;20504;-65
2023/05/15 04:42:35;;;;;;;1.75;1.30;;;22.40;52.00;;;;;;5036414;28;20040;-65
2023/05/15 04:45:01;;;;;;;1.92;1.30;;;22.40;52.00;;;;;;5038890;28;20551;-65
2023/05/15 04:47:27;;;;;;;3.00;1.40;;;22.40;52.00;;;;;;5038623;28;20036;-65
2023/05/15 04:49:53;;;;;;;3.08;1.40;;;22.40;52.00;;;;;;5035846;28;20041;-65
2023/05/15 04:52:18;;;;;;;2.30;1.50;;;22.40;52.00;;;;;;5036521;28;20033;-65
2023/05/15 04:54:44;;;;;;;2.35;1.25;;;22.40;52.00;;;;;;5037578;28;20075;-65
2023/05/15 04:57:11;;;;;;;1.92;1.20;;;22.40;52.10;;;;;;5038078;28;20028;-65
2023/05/15 04:59:36;;;;;;;2.08;1.30;;;22.40;52.10;;;;;;5036296;28;20021;-65
2023/05/15 05:02:02;;;;;;;2.40;1.30;;;22.30;52.10;;;;;;5040857;28;20064;-65
2023/05/15 05:04:28;;;;;;;2.10;1.35;;;22.40;52.10;;;;;;5037919;28;20116;-66
2023/05/15 05:06:53;;;;;;;2.50;1.00;;;22.40;52.20;;;;;;5040703;28;20025;-68
2023/05/15 05:09:19;;;;;;;1.67;1.17;;;22.40;52.40;;;;;;5042202;28;20033;-68
2023/05/15 05:11:46;;;;;;;1.65;1.05;;;22.40;52.80;;;;;;5040318;28;20108;-68
2023/05/15 05:14:13;;;;;;;2.28;1.20;;;22.50;53.10;;;;;;5041171;28;20025;-68
2023/05/15 05:16:39;;;;;;;1.67;1.00;;;22.60;52.90;;;;;;5047948;28;20027;-68
2023/05/15 05:19:05;;;;;;;1.50;1.02;;;22.70;52.00;;;;;;5040639;28;20495;-69
2023/05/15 05:21:31;;;;;;;1.83;1.10;;;22.90;52.10;;;;;;5040271;28;20030;-68
2023/05/15 05:23:57;;;;;;;2.10;1.30;;;23.00;51.90;;;;;;5040674;28;20025;-68
2023/05/15 05:26:23;;;;;;;1.75;1.20;;;23.00;51.70;;;;;;5040174;28;20064;-68
2023/05/15 05:28:48;;;;;;;2.35;1.13;;;23.20;51.30;;;;;;5038871;28;20118;-68
2023/05/15 05:31:14;;;;;;;1.70;1.17;;;23.20;51.00;;;;;;5042103;28;20033;-68
2023/05/15 05:33:40;;;;;;;1.60;1.15;;;23.30;51.20;;;;;;5040741;28;20067;-68
2023/05/15 05:36:06;;;;;;;1.70;1.10;;;23.40;50.50;;;;;;5039659;28;20582;-68
2023/05/15 05:38:32;;;;;;;2.03;1.55;;;23.50;50.30;;;;;;5040550;28;20033;-68
2023/05/15 05:41:00;;;;;;;1.80;1.20;;;23.60;50.40;;;;;;5041819;28;20036;-68
2023/05/15 05:43:25;;;;;;;2.00;1.10;;;23.70;50.20;;;;;;5041274;28;20032;-68
2023/05/15 05:45:51;;;;;;;1.45;1.02;;;23.80;50.60;;;;;;5041306;28;20155;-68
2023/05/15 05:48:17;;;;;;;1.30;1.00;;;24.00;49.80;;;;;;5041217;28;20403;-68
2023/05/15 05:50:42;;;;;;;1.63;1.17;;;24.00;49.30;;;;;;5038160;28;20030;-68
2023/05/15 05:53:08;;;;;;;1.33;0.93;;;23.90;49.20;;;;;;5039681;28;20453;-68
2023/05/15 05:55:34;;;;;;;1.67;1.00;;;23.90;49.20;;;;;;5039000;28;20235;-68
2023/05/15 05:58:00;;;;;;;1.50;1.10;;;23.80;49.30;;;;;;5041241;28;21110;-68
2023/05/15 06:00:26;;;;;;;2.03;1.10;;;23.80;49.40;;;;;;5041460;28;20032;-68
2023/05/15 06:02:58;;;;;;;1.92;1.27;;;23.80;49.40;;;;;;5039278;28;20485;-68
2023/05/15 06:05:27;;;;;;;1.45;1.00;;;23.80;49.40;;;;;;5039867;28;20111;-68
2023/05/15 06:07:53;;;;;;;1.70;1.23;;;23.80;49.50;;;;;;5038824;28;20136;-69
2023/05/15 06:10:20;;;;;;;1.40;0.90;;;23.70;49.40;;;;;;5039748;28;20029;-69
2023/05/15 06:12:46;;;;;;;1.40;1.02;;;23.70;49.40;;;;;;5041515;28;20044;-68
2023/05/15 06:15:12;;;;;;;2.10;1.02;;;23.70;49.50;;;;;;5040913;28;20044;-68
2023/05/15 06:17:38;;;;;;;3.05;1.02;;;23.70;49.50;;;;;;5042266;28;20026;-68
2023/05/15 06:20:08;;;;;;;2.10;1.40;;;23.70;49.50;;;;;;5036873;28;20450;-68
2023/05/15 06:22:35;;;;;;;1.55;1.00;;;23.70;49.50;;;;;;5037320;28;20029;-68
2023/05/15 06:25:03;;;;;;;1.27;0.95;;;23.70;49.50;;;;;;5040648;28;20033;-68
2023/05/15 06:27:29;;;;;;;2.38;1.33;;;23.70;49.40;;;;;;5041734;28;20473;-69
2023/05/15 06:29:55;;;;;;;2.38;1.20;;;23.80;49.50;;;;;;5039760;28;20048;-69
2023/05/15 06:32:20;;;;;;;1.50;1.00;;;23.70;49.40;;;;;;5038792;28;20056;-68
2023/05/15 06:34:46;;;;;;;1.42;1.10;;;23.80;49.40;;;;;;5038686;28;20141;-68
2023/05/15 06:37:11;;;;;;;1.83;1.00;;;23.70;49.30;;;;;;5039576;28;20488;-68
2023/05/15 06:39:37;;;;;;;1.33;1.00;;;23.80;49.40;;;;;;5039546;28;20045;-68
2023/05/15 06:42:03;;;;;;;1.30;0.90;;;23.80;49.40;;;;;;5038273;28;20104;-69
2023/05/15 06:44:32;;;;;;;1.90;1.05;;;23.80;49.40;;;;;;5039688;28;20325;-69
2023/05/15 06:46:58;;;;;;;1.58;0.90;;;23.80;49.40;;;;;;5036471;28;20090;-69
2023/05/15 06:49:24;;;;;;;2.03;1.10;;;23.80;49.40;;;;;;5035552;28;20438;-69
2023/05/15 06:51:50;;;;;;;1.67;1.00;;;23.80;49.30;;;;;;5045596;28;20044;-69
2023/05/15 06:54:15;;;;;;;1.73;1.10;;;23.70;49.30;;;;;;5036365;28;20176;-68
2023/05/15 06:56:41;;;;;;;2.58;1.00;;;23.80;49.30;;;;;;5040301;28;20025;-69
2023/05/15 06:59:07;;;;;;;1.63;1.13;;;23.80;49.30;;;;;;5041219;28;20036;-68
2023/05/15 07:01:32;;;;;;;1.25;1.00;;;23.80;49.20;;;;;;5040438;28;20359;-69
2023/05/15 07:03:58;;;;;;;1.05;0.95;;;23.80;49.30;;;;;;5040272;28;20066;-69
2023/05/15 07:06:24;;;;;;;1.73;1.10;;;23.80;49.80;;;;;;5036923;28;20045;-69
2023/05/15 07:08:50;;;;;;;1.30;0.88;;;23.80;49.30;;;;;;5037391;28;20033;-68
2023/05/15 07:11:16;;;;;;;1.25;0.90;;;23.80;49.40;;;;;;5039698;28;20029;-67
2023/05/15 07:13:41;;;;;;;1.63;1.15;;;23.80;49.40;;;;;;5037019;28;20392;-67
2023/05/15 07:16:07;;;;;;;1.55;0.90;;;23.80;49.50;;;;;;5035911;28;20438;-67
2023/05/15 07:18:32;;;;;;;1.08;0.85;;;23.80;49.50;;;;;;5037093;28;20093;-68
2023/05/15 07:20:58;;;;;;;1.20;0.93;;;23.80;49.50;;;;;;5036086;28;20048;-68
2023/05/15 07:23:24;;;;;;;1.08;0.90;;;23.80;49.70;;;;;;5037581;28;20403;-68
2023/05/15 07:25:51;;;;;;;1.33;1.00;;;23.90;49.70;;;;;;5040687;28;20140;-67
2023/05/15 07:28:17;;;;;;;1.35;0.80;;;23.90;49.60;;;;;;5037635;28;20041;-67
2023/05/15 07:30:42;;;;;;;1.98;1.10;;;23.90;49.60;;;;;;5037781;28;20032;-68
2023/05/15 07:33:08;;;;;;;1.35;0.90;;;23.90;49.60;;;;;;5037234;28;20037;-67
2023/05/15 07:35:33;;;;;;;1.75;0.98;;;23.90;49.60;;;;;;5034889;28;20028;-68
2023/05/15 07:37:59;;;;;;;2.28;1.00;;;23.90;49.60;;;;;;5035625;28;20075;-68
2023/05/15 07:40:24;;;;;;;1.63;1.08;;;23.90;49.60;;;;;;5039749;28;20489;-68
2023/05/15 07:42:50;;;;;;;1.38;0.82;;;23.90;49.60;;;;;;5038017;28;20111;-68
2023/05/15 07:45:16;;;;;;;1.17;0.70;;;23.90;49.80;;;;;;5037280;28;20029;-68
2023/05/15 07:47:46;;;;;;;1.75;0.90;;;23.90;49.80;;;;;;5036870;28;20053;-68
2023/05/15 07:50:12;;;;;;;1.63;1.10;;;23.90;49.60;;;;;;5036738;28;20040;-68
2023/05/15 07:52:38;;;;;;;1.85;0.90;;;23.90;49.70;;;;;;5040236;28;20037;-68
2023/05/15 07:55:04;;;;;;;1.80;0.90;;;23.90;49.60;;;;;;5040144;28;20039;-68
2023/05/15 07:57:30;;;;;;;2.13;0.95;;;23.90;49.50;;;;;;5037921;28;20029;-69
2023/05/15 07:59:56;;;;;;;2.40;1.10;;;23.90;49.40;;;;;;5039867;28;20052;-68
2023/05/15 08:02:22;;;;;;;1.45;1.00;;;23.90;49.50;;;;;;5037605;28;20033;-68
2023/05/15 08:04:48;;;;;;;1.77;1.10;;;23.90;49.50;;;;;;5038160;28;20051;-67
2023/05/15 08:07:13;;;;;;;2.42;1.20;;;23.90;49.60;;;;;;5036721;28;20437;-68
2023/05/15 08:09:39;;;;;;;1.58;1.00;;;23.90;49.60;;;;;;5038196;28;20025;-68
2023/05/15 08:12:21;;;;;;;1.05;0.90;;;23.90;49.60;;;;;;5036240;28;20035;-68
2023/05/15 08:14:51;;;;;;;1.67;1.00;;;23.90;49.70;;;;;;5036649;28;20025;-68
2023/05/15 08:17:18;;;;;;;1.75;1.10;;;23.90;49.70;;;;;;5037344;28;20032;-69
2023/05/15 08:19:44;;;;;;;1.45;1.08;;;23.90;49.70;;;;;;5037256;28;20045;-68
2023/05/15 08:22:10;;;;;;;1.17;1.00;;;23.90;49.70;;;;;;5036300;28;20025;-69
2023/05/15 08:24:36;;;;;;;1.95;1.20;;;23.90;49.70;;;;;;5037147;28;20041;-68
2023/05/15 08:27:04;;;;;;;1.83;1.10;;;23.90;49.70;;;;;;5036478;28;20029;-68
2023/05/15 08:29:30;;;;;;;1.50;1.00;;;23.90;49.70;;;;;;5040489;28;20033;-67
2023/05/15 08:31:55;;;;;;;1.85;1.00;;;23.90;49.80;;;;;;5037877;28;20489;-68
2023/05/15 08:34:21;;;;;;;1.85;1.10;;;23.90;49.70;;;;;;5040804;28;20040;-67
2023/05/15 08:36:47;;;;;;;1.70;1.20;;;23.90;49.70;;;;;;5041281;28;20029;-68
2023/05/15 08:39:12;;;;;;;1.50;1.08;;;23.90;49.70;;;;;;5042062;28;20367;-67
2023/05/15 08:41:56;;;;;;;2.08;1.05;;;23.90;49.70;;;;;;5041823;28;20052;-68
2023/05/15 08:44:22;;;;;;;2.35;1.20;;;23.90;50.20;;;;;;5040686;28;20440;-68
2023/05/15 08:46:48;;;;;;;1.40;1.00;;;23.90;49.70;;;;;;5041808;28;20140;-68
2023/05/15 08:49:50;;;;;;;1.55;1.00;;;23.90;49.70;;;;;;5042111;28;20116;-68
2023/05/15 08:52:16;;;;;;;1.45;1.05;;;23.90;49.80;;;;;;5041600;28;20063;-67
2023/05/15 08:54:42;;;;;;;1.92;1.13;;;23.90;49.70;;;;;;5040993;28;20125;-67
2023/05/15 08:57:09;;;;;;;1.58;0.90;;;23.90;49.70;;;;;;5041090;28;20362;-67
2023/05/15 08:59:36;;;;;;;1.48;1.00;;;23.90;49.70;;;;;;5041799;28;20033;-67
2023/05/15 09:02:02;;;;;;;2.28;1.10;;;23.90;49.80;;;;;;5041996;28;20057;-68
2023/05/15 09:04:28;;;;;;;1.55;1.00;;;23.90;49.80;;;;;;5040316;28;20026;-67
2023/05/15 09:06:54;;;;;;;1.63;0.90;;;23.90;49.90;;;;;;5041263;28;20454;-68
2023/05/15 09:09:21;;;;;;;2.58;0.90;;;23.90;49.90;;;;;;5042128;28;20025;-67
2023/05/15 09:11:48;;;;;;;1.80;1.20;;;23.90;49.90;;;;;;5041545;28;20124;-67
2023/05/15 09:14:13;;;;;;;1.67;0.95;;;23.90;49.90;;;;;;5041997;28;20045;-68
2023/05/15 09:16:39;;;;;;;1.10;0.90;;;23.90;50.00;;;;;;5041075;28;20108;-67
2023/05/15 09:19:06;;;;;;;1.40;1.10;;;23.90;49.90;;;;;;5041288;28;20040;-68
2023/05/15 09:21:33;;;;;;;1.35;1.00;;;23.90;49.90;;;;;;5038460;28;20522;-68
2023/05/15 09:24:25;;;;;;;1.77;1.13;;;23.90;49.90;;;;;;5040096;28;20044;-67
2023/05/15 09:27:05;;;;;;;1.00;0.90;;;23.90;49.90;;;;;;5040856;28;20037;-70
2023/05/15 09:29:32;;;;;;;1.35;0.90;;;23.90;49.90;;;;;;5039180;28;20511;-68
2023/05/15 09:32:06;;;;;;;1.27;0.82;;;23.90;49.90;;;;;;5042327;28;20036;-67
2023/05/15 09:34:34;;;;;;;1.70;1.00;;;23.90;49.90;;;;;;5039621;28;20091;-68
2023/05/15 09:37:01;;;;;;;1.50;1.00;;;23.90;49.90;;;;;;5036992;28;20072;-68
2023/05/15 09:39:27;;;;;;;1.33;1.00;;;23.90;49.90;;;;;;5038704;28;20035;-67
2023/05/15 09:42:04;;;;;;;0.93;0.80;;;23.90;49.90;;;;;;5039899;28;20032;-68
2023/05/15 09:44:29;;;;;;;1.25;0.85;;;23.90;49.90;;;;;;5040999;28;20064;-68
2023/05/15 09:46:56;;;;;;;1.30;0.90;;;23.90;50.00;;;;;;5039853;28;20072;-67
2023/05/15 09:49:21;;;;;;;1.52;0.95;;;23.90;50.10;;;;;;5041101;28;20749;-67
2023/05/15 09:51:49;;;;;;;1.25;0.90;;;23.90;50.10;;;;;;5038331;28;20128;-67
2023/05/15 09:54:16;;;;;;;1.60;1.08;;;23.90;50.20;;;;;;5041310;28;20079;-68
2023/05/15 09:56:46;;;;;;;1.30;0.70;;;23.90;50.20;;;;;;5046364;28;20049;-67
2023/05/15 09:59:20;;;;;;;1.75;1.00;;;23.90;50.30;;;;;;5040684;28;20139;-67
2023/05/15 10:01:51;;;;;;;1.23;0.80;;;23.90;50.40;;;;;;5040132;28;20025;-67
2023/05/15 10:04:17;;;;;;;1.05;0.80;;;23.90;50.20;;;;;;5038208;28;20021;-67
2023/05/15 10:06:45;;;;;;;1.38;0.90;;;23.90;50.20;;;;;;5039141;28;20104;-66
2023/05/15 10:09:13;;;;;;;1.33;0.80;;;23.90;50.20;;;;;;5039958;28;20036;-67
2023/05/15 10:11:43;;;;;;;1.10;0.80;;;23.90;50.30;;;;;;5037746;28;20050;-67
2023/05/15 10:14:12;;;;;;;1.20;0.80;;;23.90;50.20;;;;;;5039407;28;20088;-67
2023/05/15 10:16:39;;;;;;;1.17;0.90;;;23.90;50.20;;;;;;5039486;28;20108;-67
2023/05/15 10:19:07;;;;;;;0.93;0.80;;;23.90;50.30;;;;;;5039595;28;20116;-67
2023/05/15 10:21:34;;;;;;;1.20;0.88;;;23.90;50.20;;;;;;5039319;28;20013;-67
2023/05/15 10:24:01;;;;;;;1.35;0.80;;;23.90;50.10;;;;;;5039372;28;20029;-68
2023/05/15 10:26:37;;;;;;;1.20;0.80;;;23.90;50.10;;;;;;5039375;28;20381;-67
2023/05/15 10:29:10;;;;;;;1.33;0.98;;;23.90;50.10;;;;;;5039850;28;20182;-67
2023/05/15 10:31:36;;;;;;;1.00;0.80;;;23.90;50.00;;;;;;5037996;28;20053;-68
2023/05/15 10:34:03;;;;;;;1.13;0.70;;;23.90;50.10;;;;;;5037714;28;20480;-67
2023/05/15 10:36:30;;;;;;;1.10;0.70;;;23.90;50.00;;;;;;5039292;28;20108;-67
2023/05/15 10:38:58;;;;;;;1.23;0.80;;;23.90;50.10;;;;;;5041133;28;20025;-67
2023/05/15 10:41:27;;;;;;;0.93;0.70;;;23.90;50.10;;;;;;5037807;28;20611;-67
2023/05/15 10:43:54;;;;;;;1.02;0.85;;;23.90;50.20;;;;;;5039713;28;20501;-68
2023/05/15 10:46:20;;;;;;;1.48;0.80;;;23.90;50.20;;;;;;5041567;28;20638;-67
2023/05/15 10:48:46;;;;;;;1.83;0.88;;;23.90;50.20;;;;;;5038576;28;20029;-68
2023/05/15 10:51:16;;;;;;;0.90;0.80;;;23.90;50.20;;;;;;5037210;28;20098;-67
2023/05/15 10:53:45;;;;;;;1.40;0.90;;;23.90;50.20;;;;;;5034582;28;20040;-67
2023/05/15 10:56:15;;;;;;;0.90;0.77;;;24.00;50.20;;;;;;5037247;28;20021;-68
2023/05/15 10:58:48;;;;;;;1.08;0.73;;;24.00;50.20;;;;;;5038432;28;20346;-68
2023/05/15 11:01:31;;;;;;;1.05;0.80;;;24.00;50.40;;;;;;5039610;28;20129;-68
2023/05/15 11:04:11;;;;;;;1.00;0.70;;;23.90;50.30;;;;;;5038676;28;20032;-69
2023/05/15 11:06:39;;;;;;;1.05;0.80;;;23.90;50.30;;;;;;5052607;28;20393;-69
2023/05/15 11:09:23;;;;;;;0.93;0.73;;;23.90;50.30;;;;;;5037654;28;20034;-69
2023/05/15 11:11:55;;;;;;;1.20;0.80;;;24.00;50.40;;;;;;5038824;28;20086;-67
2023/05/15 11:14:42;;;;;;;1.17;0.90;;;24.00;50.40;;;;;;5039769;28;20032;-69
2023/05/15 11:17:10;;;;;;;1.00;0.73;;;24.00;50.40;;;;;;5037269;28;20401;-66
2023/05/15 11:19:39;;;;;;;0.80;0.70;;;24.00;50.40;;;;;;5035223;28;20060;-67
2023/05/15 11:22:07;;;;;;;1.38;0.70;;;24.00;50.40;;;;;;5036659;28;20025;-67
2023/05/15 11:24:51;;;;;;;1.10;0.80;;;24.00;50.40;;;;;;5032423;28;20366;-67
2023/05/15 11:27:22;;;;;;;1.42;0.90;;;24.00;50.40;;;;;;5036987;28;20427;-67
2023/05/15 11:30:08;;;;;;;1.02;0.80;;;24.00;50.40;;;;;;5036612;28;20031;-68
2023/05/15 11:32:46;;;;;;;1.23;0.80;;;24.00;50.40;;;;;;5072263;28;20498;-67
2023/05/15 11:35:22;;;;;;;0.85;0.80;;;24.00;50.50;;;;;;5034736;28;20068;-68
2023/05/15 11:37:53;;;;;;;1.42;0.80;;;24.00;50.50;;;;;;5035598;28;20390;-69
2023/05/15 11:40:23;;;;;;;1.00;0.70;;;24.00;50.50;;;;;;5036408;28;20503;-67
2023/05/15 11:43:18;;;;;;;1.15;0.80;;;24.00;50.50;;;;;;5040601;28;20041;-68
2023/05/15 11:45:46;;;;;;;0.82;0.70;;;24.00;50.50;;;;;;5037153;28;20025;-69
2023/05/15 11:48:14;;;;;;;0.90;0.70;;;24.00;50.40;;;;;;5035394;28;20491;-70
2023/05/15 11:50:40;;;;;;;1.70;0.70;;;24.00;50.40;;;;;;5039066;28;20033;-68
2023/05/15 11:53:08;;;;;;;1.20;0.80;;;24.00;50.40;;;;;;5038752;28;20027;-69
2023/05/15 11:55:36;;;;;;;0.95;0.80;;;24.00;50.50;;;;;;5037886;28;20029;-70
2023/05/15 11:58:03;;;;;;;1.05;0.70;;;24.10;50.60;;;;;;5039609;28;20075;-68
2023/05/15 12:00:29;;;;;;;1.33;0.88;;;24.10;50.60;;;;;;5068740;28;20365;-69
2023/05/15 12:02:55;;;;;;;1.00;0.70;;;24.00;50.50;;;;;;5042883;28;20037;-68
2023/05/15 12:05:22;;;;;;;1.08;0.70;;;24.10;50.60;;;;;;5036792;28;20041;-69
2023/05/15 12:07:48;;;;;;;1.00;0.80;;;24.10;50.70;;;;;;5036087;28;20037;-69
2023/05/15 12:10:14;;;;;;;1.00;0.80;;;24.10;50.60;;;;;;5038155;28;20162;-69
2023/05/15 12:12:41;;;;;;;1.52;0.80;;;24.10;50.60;;;;;;5036567;28;20029;-70
2023/05/15 12:15:14;;;;;;;0.73;0.70;;;24.10;50.60;;;;;;5036416;28;20051;-69
2023/05/15 12:17:40;;;;;;;1.17;0.70;;;24.10;50.70;;;;;;5042239;28;20029;-68
2023/05/15 12:20:17;;;;;;;1.05;0.70;;;24.10;50.70;;;;;;5038768;28;20025;-68
2023/05/15 12:22:43;;;;;;;1.20;0.80;;;24.10;50.80;;;;;;5036567;28;20500;-68
2023/05/15 12:25:10;;;;;;;1.00;0.90;;;24.10;50.70;;;;;;5042208;28;20089;-68
2023/05/15 12:27:37;;;;;;;1.33;0.90;;;24.10;50.70;;;;;;5041529;28;20021;-68
2023/05/15 12:30:04;;;;;;;0.95;0.80;;;24.10;50.70;;;;;;5037468;28;20085;-68
2023/05/15 12:32:33;;;;;;;1.77;0.70;;;24.10;50.80;;;;;;5038994;28;20459;-69
2023/05/15 12:34:59;;;;;;;0.77;0.70;;;24.10;50.70;;;;;;5042703;28;20029;-67
2023/05/15 12:37:25;;;;;;;1.30;0.70;;;24.10;50.70;;;;;;5039859;28;20127;-68
2023/05/15 12:39:58;;;;;;;1.13;0.75;;;24.10;50.70;;;;;;5037031;28;20032;-68
2023/05/15 12:42:25;;;;;;;1.00;0.80;;;24.10;50.80;;;;;;5069029;28;20124;-67
2023/05/15 12:44:54;;;;;;;1.60;0.90;;;24.10;50.70;;;;;;5037096;28;20056;-67
2023/05/15 12:47:21;;;;;;;;;;;24.10;50.70;;;;;;5039389;28;20380;-68
2023/05/15 12:49:46;;;;;;;1.13;0.80;;;24.10;50.80;;;;;;5038654;28;19908;-68
2023/05/15 12:52:15;;;;;;;1.42;0.98;;;24.10;50.60;;;;;;5036116;28;20028;-68